Main page
METAR-TAF:

METAR-TAF

Airports :

Marham, England

RAF Marham

latitude: 52-39N, longitude: 000-34E, elevation: 23 m

Current weather observation

The report was made 26 minutes ago, at 23:50 UTC
Wind 5 kt from the South
Temperature 9°C
Humidity 87%
Pressure 1020 hPa
Visibility 10 km or more

METAR: EGYM 192350Z AUTO 18005KT 9999 BKN040/// 09/07 Q1020

Time: 01:16 (00:16 UTC)


TAF: missing

Weather observations and forecasts of more than 4000 airports (METAR and TAF reports).

The available stations are represented by yellow and red dots on the map.

Hover mouse over dot to see the name of the station.

Then click to see weather observations and forecasts.

To change the map : click on the green buttons with a black cross to zoom in, on the green button with a dash to zoom out, or on the green arrows for adjacent maps.


METAR-TAF: